Plainview, Arkansas
Current Conditions -  °F | °C
As of 5:53 PM on Monday 22 Dec 2014 (Local Time) from KRUE Reporting Station
Haze Haze  
Wind Chill: 53°   Ceiling: 1000
Heat Index: 53°   Visibility: 6mi
Dew Point: 51°   Wind: 0mph
Humidity: 93%   Direction: NA
Pressure: 29.57"   Gusts: NA
Location:  34.99°N, 93.3°W
Report Text: KRUE 222353Z AUTO 00000KT 6SM BR OVC010 12/11 A2957 RMK AO2 SLP011 60004 T01170106 10117 20100 53008
Loading
Personal Weather Stations






























Interactive Weather Map New forecast layout! Learn more

10-Day Weather Forecast

Advertisements
Track Severe Weather on mobile